sensor_id;sensor_type;location;lat;lon;timestamp;pressure;altitude;pressure_sealevel;temperature;humidity
8949;BME280;4509;51.522;9.910;2022-07-19T00:00:54;100305.81;;;16.91;77.82
8949;BME280;4509;51.522;9.910;2022-07-19T00:03:22;100304.56;;;16.95;70.04
8949;BME280;4509;51.522;9.910;2022-07-19T00:05:48;100310.25;;;16.90;69.67
8949;BME280;4509;51.522;9.910;2022-07-19T00:08:15;100306.09;;;16.88;72.05
8949;BME280;4509;51.522;9.910;2022-07-19T00:10:42;100306.78;;;16.80;71.33
8949;BME280;4509;51.522;9.910;2022-07-19T00:13:10;100307.06;;;16.77;70.99
8949;BME280;4509;51.522;9.910;2022-07-19T00:15:36;100310.25;;;16.71;70.65
8949;BME280;4509;51.522;9.910;2022-07-19T00:18:03;100304.03;;;16.51;79.83
8949;BME280;4509;51.522;9.910;2022-07-19T00:20:29;100307.53;;;16.52;76.29
8949;BME280;4509;51.522;9.910;2022-07-19T00:22:56;100305.88;;;16.51;71.87
8949;BME280;4509;51.522;9.910;2022-07-19T00:25:23;100300.56;;;16.41;73.16
8949;BME280;4509;51.522;9.910;2022-07-19T00:27:49;100299.56;;;16.42;70.83
8949;BME280;4509;51.522;9.910;2022-07-19T00:30:17;100298.34;;;16.46;71.40
8949;BME280;4509;51.522;9.910;2022-07-19T00:32:44;100298.31;;;16.37;72.45
8949;BME280;4509;51.522;9.910;2022-07-19T00:35:11;100297.72;;;16.33;71.21
8949;BME280;4509;51.522;9.910;2022-07-19T00:37:38;100297.44;;;16.26;74.71
8949;BME280;4509;51.522;9.910;2022-07-19T00:40:05;100293.25;;;16.24;72.76
8949;BME280;4509;51.522;9.910;2022-07-19T00:42:32;100296.31;;;16.19;75.17
8949;BME280;4509;51.522;9.910;2022-07-19T00:44:58;100297.28;;;16.18;71.71
8949;BME280;4509;51.522;9.910;2022-07-19T00:47:26;100305.75;;;16.12;74.08
8949;BME280;4509;51.522;9.910;2022-07-19T00:49:53;100304.09;;;16.11;73.15
8949;BME280;4509;51.522;9.910;2022-07-19T00:52:22;100301.69;;;16.08;74.37
8949;BME280;4509;51.522;9.910;2022-07-19T00:54:52;100305.69;;;15.93;79.06
8949;BME280;4509;51.522;9.910;2022-07-19T00:57:19;100301.09;;;15.95;74.83
8949;BME280;4509;51.522;9.910;2022-07-19T00:59:50;100306.19;;;15.87;74.58
8949;BME280;4509;51.522;9.910;2022-07-19T01:02:20;100305.03;;;15.80;82.07
8949;BME280;4509;51.522;9.910;2022-07-19T01:04:48;100301.44;;;15.81;72.87
8949;BME280;4509;51.522;9.910;2022-07-19T01:07:14;100303.19;;;15.71;76.26
8949;BME280;4509;51.522;9.910;2022-07-19T01:09:41;100309.69;;;15.67;74.74
8949;BME280;4509;51.522;9.910;2022-07-19T01:12:09;100301.06;;;15.65;77.61
8949;BME280;4509;51.522;9.910;2022-07-19T01:14:35;100297.97;;;15.59;77.30
8949;BME280;4509;51.522;9.910;2022-07-19T01:17:02;100304.38;;;15.57;73.40
8949;BME280;4509;51.522;9.910;2022-07-19T01:19:29;100307.63;;;15.49;84.02
8949;BME280;4509;51.522;9.910;2022-07-19T01:21:57;100307.88;;;15.46;75.13
8949;BME280;4509;51.522;9.910;2022-07-19T01:24:25;100306.44;;;15.42;76.88
8949;BME280;4509;51.522;9.910;2022-07-19T01:26:53;100310.72;;;15.34;82.33
8949;BME280;4509;51.522;9.910;2022-07-19T01:29:19;100309.88;;;15.33;76.04
8949;BME280;4509;51.522;9.910;2022-07-19T01:31:46;100302.19;;;15.30;81.22
8949;BME280;4509;51.522;9.910;2022-07-19T01:34:12;100313.03;;;15.27;77.76
8949;BME280;4509;51.522;9.910;2022-07-19T01:36:39;100311.16;;;15.18;76.84
8949;BME280;4509;51.522;9.910;2022-07-19T01:39:07;100311.28;;;15.16;76.86
8949;BME280;4509;51.522;9.910;2022-07-19T01:41:34;100307.53;;;14.98;82.50
8949;BME280;4509;51.522;9.910;2022-07-19T01:44:00;100311.19;;;15.07;79.18
8949;BME280;4509;51.522;9.910;2022-07-19T01:46:27;100316.59;;;15.05;79.56
8949;BME280;4509;51.522;9.910;2022-07-19T01:48:54;100316.66;;;14.94;78.47
8949;BME280;4509;51.522;9.910;2022-07-19T01:51:20;100311.03;;;14.87;79.64
8949;BME280;4509;51.522;9.910;2022-07-19T01:53:47;100312.94;;;14.85;79.98
8949;BME280;4509;51.522;9.910;2022-07-19T01:56:15;100305.88;;;14.86;76.70
8949;BME280;4509;51.522;9.910;2022-07-19T01:58:41;100299.31;;;14.80;77.05
8949;BME280;4509;51.522;9.910;2022-07-19T02:01:08;100299.56;;;14.66;81.25
8949;BME280;4509;51.522;9.910;2022-07-19T02:03:35;100296.44;;;14.72;76.99
8949;BME280;4509;51.522;9.910;2022-07-19T02:06:01;100301.41;;;14.66;81.09
8949;BME280;4509;51.522;9.910;2022-07-19T02:08:28;100305.97;;;14.64;81.54
8949;BME280;4509;51.522;9.910;2022-07-19T02:10:55;100304.28;;;14.51;80.85
8949;BME280;4509;51.522;9.910;2022-07-19T02:13:23;100307.53;;;14.55;77.86
8949;BME280;4509;51.522;9.910;2022-07-19T02:15:50;100302.97;;;14.57;78.49
8949;BME280;4509;51.522;9.910;2022-07-19T02:18:17;100311.59;;;14.37;92.87
8949;BME280;4509;51.522;9.910;2022-07-19T02:20:44;100306.84;;;14.42;83.95
8949;BME280;4509;51.522;9.910;2022-07-19T02:23:10;100318.34;;;14.41;77.53
8949;BME280;4509;51.522;9.910;2022-07-19T02:25:37;100314.34;;;14.35;86.29
8949;BME280;4509;51.522;9.910;2022-07-19T02:28:04;100317.22;;;14.32;84.17
8949;BME280;4509;51.522;9.910;2022-07-19T02:30:33;100316.91;;;14.26;82.00
8949;BME280;4509;51.522;9.910;2022-07-19T02:32:59;100316.06;;;14.25;81.77
8949;BME280;4509;51.522;9.910;2022-07-19T02:35:26;100323.38;;;14.21;87.16
8949;BME280;4509;51.522;9.910;2022-07-19T02:37:52;100321.81;;;14.19;82.04
8949;BME280;4509;51.522;9.910;2022-07-19T02:40:19;100318.22;;;14.09;89.63
8949;BME280;4509;51.522;9.910;2022-07-19T02:42:46;100324.31;;;13.98;96.08
8949;BME280;4509;51.522;9.910;2022-07-19T02:45:12;100327.31;;;14.05;83.56
8949;BME280;4509;51.522;9.910;2022-07-19T02:47:40;100323.97;;;14.03;82.92
8949;BME280;4509;51.522;9.910;2022-07-19T02:50:07;100328.63;;;13.88;94.09
8949;BME280;4509;51.522;9.910;2022-07-19T02:52:34;100326.94;;;13.98;82.63
8949;BME280;4509;51.522;9.910;2022-07-19T02:55:01;100329.81;;;13.95;87.41
8949;BME280;4509;51.522;9.910;2022-07-19T02:57:28;100336.78;;;13.85;86.71
8949;BME280;4509;51.522;9.910;2022-07-19T02:59:54;100337.22;;;13.79;86.74
8949;BME280;4509;51.522;9.910;2022-07-19T03:02:21;100332.69;;;13.81;86.37
8949;BME280;4509;51.522;9.910;2022-07-19T03:04:49;100330.91;;;13.81;80.97
8949;BME280;4509;51.522;9.910;2022-07-19T03:07:16;100331.84;;;13.80;82.50
8949;BME280;4509;51.522;9.910;2022-07-19T03:09:43;100331.47;;;13.74;84.03
8949;BME280;4509;51.522;9.910;2022-07-19T03:12:11;100328.81;;;13.63;90.59
8949;BME280;4509;51.522;9.910;2022-07-19T03:14:37;100332.19;;;13.65;85.85
8949;BME280;4509;51.522;9.910;2022-07-19T03:17:04;100333.16;;;13.64;80.87
8949;BME280;4509;51.522;9.910;2022-07-19T03:19:31;100326.44;;;13.60;83.02
8949;BME280;4509;51.522;9.910;2022-07-19T03:21:59;100325.13;;;13.54;84.13
8949;BME280;4509;51.522;9.910;2022-07-19T03:24:25;100329.16;;;13.58;80.33
8949;BME280;4509;51.522;9.910;2022-07-19T03:26:52;100326.53;;;13.47;84.25
8949;BME280;4509;51.522;9.910;2022-07-19T03:29:19;100331.19;;;13.43;90.77
8949;BME280;4509;51.522;9.910;2022-07-19T03:31:46;100329.28;;;13.45;80.99
8949;BME280;4509;51.522;9.910;2022-07-19T03:34:12;100333.09;;;13.41;84.71
8949;BME280;4509;51.522;9.910;2022-07-19T03:36:39;100333.91;;;13.42;83.60
8949;BME280;4509;51.522;9.910;2022-07-19T03:39:07;100340.97;;;13.30;97.38
8949;BME280;4509;51.522;9.910;2022-07-19T03:41:34;100331.88;;;13.34;83.58
8949;BME280;4509;51.522;9.910;2022-07-19T03:44:00;100327.47;;;13.35;82.56
8949;BME280;4509;51.522;9.910;2022-07-19T03:46:27;100335.06;;;13.27;90.97
8949;BME280;4509;51.522;9.910;2022-07-19T03:48:54;100334.13;;;13.28;84.63
8949;BME280;4509;51.522;9.910;2022-07-19T03:51:21;100334.00;;;13.29;85.68
8949;BME280;4509;51.522;9.910;2022-07-19T03:53:47;100336.97;;;13.25;92.44
8949;BME280;4509;51.522;9.910;2022-07-19T03:56:16;100337.19;;;13.22;100.00
8949;BME280;4509;51.522;9.910;2022-07-19T03:58:43;100344.63;;;13.16;94.04
8949;BME280;4509;51.522;9.910;2022-07-19T04:01:10;100341.41;;;13.24;85.04
8949;BME280;4509;51.522;9.910;2022-07-19T04:03:37;100340.56;;;13.24;91.92
8949;BME280;4509;51.522;9.910;2022-07-19T04:06:05;100337.81;;;13.25;88.03
8949;BME280;4509;51.522;9.910;2022-07-19T04:08:32;100341.28;;;13.26;95.95
8949;BME280;4509;51.522;9.910;2022-07-19T04:10:59;100336.97;;;13.25;94.23
8949;BME280;4509;51.522;9.910;2022-07-19T04:13:27;100342.41;;;13.34;93.81
8949;BME280;4509;51.522;9.910;2022-07-19T04:15:54;100338.84;;;13.35;96.89
8949;BME280;4509;51.522;9.910;2022-07-19T04:18:20;100340.38;;;13.38;87.11
8949;BME280;4509;51.522;9.910;2022-07-19T04:20:47;100338.13;;;13.44;83.04
8949;BME280;4509;51.522;9.910;2022-07-19T04:23:13;100342.94;;;13.50;94.37
8949;BME280;4509;51.522;9.910;2022-07-19T04:25:40;100344.13;;;13.46;96.78
8949;BME280;4509;51.522;9.910;2022-07-19T04:28:07;100333.25;;;13.51;90.64
8949;BME280;4509;51.522;9.910;2022-07-19T04:30:35;100338.75;;;13.48;93.32
8949;BME280;4509;51.522;9.910;2022-07-19T04:33:01;100334.66;;;13.55;89.98
8949;BME280;4509;51.522;9.910;2022-07-19T04:35:28;100340.53;;;13.59;92.70
8949;BME280;4509;51.522;9.910;2022-07-19T04:37:55;100348.72;;;13.67;83.95
8949;BME280;4509;51.522;9.910;2022-07-19T04:40:21;100354.34;;;13.73;84.06
8949;BME280;4509;51.522;9.910;2022-07-19T04:42:48;100358.09;;;13.82;82.61
8949;BME280;4509;51.522;9.910;2022-07-19T04:45:15;100356.56;;;13.91;87.76
8949;BME280;4509;51.522;9.910;2022-07-19T04:47:43;100352.00;;;14.04;87.02
8949;BME280;4509;51.522;9.910;2022-07-19T04:50:10;100359.69;;;14.18;88.87
8949;BME280;4509;51.522;9.910;2022-07-19T04:52:37;100354.03;;;14.34;97.33
8949;BME280;4509;51.522;9.910;2022-07-19T04:55:05;100352.63;;;14.52;96.10
8949;BME280;4509;51.522;9.910;2022-07-19T04:57:32;100350.06;;;14.73;99.51
8949;BME280;4509;51.522;9.910;2022-07-19T04:59:58;100352.78;;;14.94;100.00
8949;BME280;4509;51.522;9.910;2022-07-19T05:02:25;100353.91;;;15.12;100.00
8949;BME280;4509;51.522;9.910;2022-07-19T05:04:53;100352.25;;;15.32;100.00
8949;BME280;4509;51.522;9.910;2022-07-19T05:07:20;100349.91;;;15.49;99.03
8949;BME280;4509;51.522;9.910;2022-07-19T05:09:46;100350.78;;;15.71;96.82
8949;BME280;4509;51.522;9.910;2022-07-19T05:12:13;100343.66;;;15.92;98.01
8949;BME280;4509;51.522;9.910;2022-07-19T05:14:40;100340.81;;;16.14;96.34
8949;BME280;4509;51.522;9.910;2022-07-19T05:17:07;100345.66;;;16.30;94.51
8949;BME280;4509;51.522;9.910;2022-07-19T05:19:34;100354.31;;;16.42;93.31
8949;BME280;4509;51.522;9.910;2022-07-19T05:22:02;100339.22;;;16.63;93.27
8949;BME280;4509;51.522;9.910;2022-07-19T05:24:29;100350.00;;;16.81;90.98
8949;BME280;4509;51.522;9.910;2022-07-19T05:26:55;100344.72;;;17.00;90.54
8949;BME280;4509;51.522;9.910;2022-07-19T05:29:22;100354.75;;;17.16;88.45
8949;BME280;4509;51.522;9.910;2022-07-19T05:31:48;100352.94;;;17.36;87.48
8949;BME280;4509;51.522;9.910;2022-07-19T05:34:15;100339.97;;;17.52;87.53
8949;BME280;4509;51.522;9.910;2022-07-19T05:36:42;100350.28;;;17.74;88.41
8949;BME280;4509;51.522;9.910;2022-07-19T05:39:10;100350.66;;;17.89;85.74
8949;BME280;4509;51.522;9.910;2022-07-19T05:41:37;100349.22;;;18.04;84.32
8949;BME280;4509;51.522;9.910;2022-07-19T05:44:03;100349.44;;;18.20;83.05
8949;BME280;4509;51.522;9.910;2022-07-19T05:46:30;100348.00;;;18.36;82.75
8949;BME280;4509;51.522;9.910;2022-07-19T05:48:57;100356.44;;;18.49;82.92
8949;BME280;4509;51.522;9.910;2022-07-19T05:51:23;100353.78;;;18.76;82.20
8949;BME280;4509;51.522;9.910;2022-07-19T05:53:50;100358.81;;;18.97;81.03
8949;BME280;4509;51.522;9.910;2022-07-19T05:56:18;100350.50;;;19.10;73.78
8949;BME280;4509;51.522;9.910;2022-07-19T05:58:45;100350.94;;;19.23;74.30
8949;BME280;4509;51.522;9.910;2022-07-19T06:01:11;100355.81;;;19.45;74.20
8949;BME280;4509;51.522;9.910;2022-07-19T06:03:44;100359.00;;;19.66;71.95
8949;BME280;4509;51.522;9.910;2022-07-19T06:06:11;100350.13;;;19.84;71.11
8949;BME280;4509;51.522;9.910;2022-07-19T06:08:38;100346.56;;;20.01;70.75
8949;BME280;4509;51.522;9.910;2022-07-19T06:11:05;100342.50;;;20.23;71.29
8949;BME280;4509;51.522;9.910;2022-07-19T06:13:33;100352.28;;;20.40;69.05
8949;BME280;4509;51.522;9.910;2022-07-19T06:16:00;100353.34;;;20.55;69.65
8949;BME280;4509;51.522;9.910;2022-07-19T06:18:27;100348.03;;;20.63;69.76
8949;BME280;4509;51.522;9.910;2022-07-19T06:20:55;100342.44;;;20.83;70.18
8949;BME280;4509;51.522;9.910;2022-07-19T06:23:22;100352.97;;;21.08;67.30
8949;BME280;4509;51.522;9.910;2022-07-19T06:25:48;100346.53;;;21.27;67.00
8949;BME280;4509;51.522;9.910;2022-07-19T06:28:15;100343.00;;;21.35;65.93
8949;BME280;4509;51.522;9.910;2022-07-19T06:30:43;100337.19;;;21.56;66.74
8949;BME280;4509;51.522;9.910;2022-07-19T06:33:10;100341.00;;;21.77;67.47
8949;BME280;4509;51.522;9.910;2022-07-19T06:35:37;100331.97;;;22.03;65.86
8949;BME280;4509;51.522;9.910;2022-07-19T06:38:03;100332.81;;;22.03;64.56
8949;BME280;4509;51.522;9.910;2022-07-19T06:40:30;100338.28;;;22.10;65.65
8949;BME280;4509;51.522;9.910;2022-07-19T06:42:56;100338.84;;;22.36;65.05
8949;BME280;4509;51.522;9.910;2022-07-19T06:45:23;100331.75;;;22.60;61.62
8949;BME280;4509;51.522;9.910;2022-07-19T06:47:51;100335.00;;;22.70;62.85
8949;BME280;4509;51.522;9.910;2022-07-19T06:50:19;100334.00;;;23.02;61.58
8949;BME280;4509;51.522;9.910;2022-07-19T06:52:46;100334.66;;;23.27;60.28
8949;BME280;4509;51.522;9.910;2022-07-19T06:55:13;100329.66;;;23.46;57.27
8949;BME280;4509;51.522;9.910;2022-07-19T06:57:39;100333.03;;;23.63;58.26
8949;BME280;4509;51.522;9.910;2022-07-19T07:00:08;100334.66;;;23.87;57.18
8949;BME280;4509;51.522;9.910;2022-07-19T07:02:37;100331.25;;;24.08;56.89
8949;BME280;4509;51.522;9.910;2022-07-19T07:05:06;100328.09;;;24.19;57.54
8949;BME280;4509;51.522;9.910;2022-07-19T07:07:34;100322.03;;;24.25;55.09
8949;BME280;4509;51.522;9.910;2022-07-19T07:10:01;100327.34;;;24.55;53.90
8949;BME280;4509;51.522;9.910;2022-07-19T07:12:28;100324.97;;;24.81;51.88
8949;BME280;4509;51.522;9.910;2022-07-19T07:14:55;100324.63;;;25.05;49.28
8949;BME280;4509;51.522;9.910;2022-07-19T07:17:22;100329.78;;;25.28;50.67
8949;BME280;4509;51.522;9.910;2022-07-19T07:19:48;100325.63;;;25.47;50.88
8949;BME280;4509;51.522;9.910;2022-07-19T07:22:16;100334.00;;;25.59;50.88
8949;BME280;4509;51.522;9.910;2022-07-19T07:24:43;100322.38;;;25.79;51.63
8949;BME280;4509;51.522;9.910;2022-07-19T07:27:10;100318.66;;;26.08;51.29
8949;BME280;4509;51.522;9.910;2022-07-19T07:29:36;100314.16;;;26.15;48.94
8949;BME280;4509;51.522;9.910;2022-07-19T07:32:04;100317.47;;;26.24;49.94
8949;BME280;4509;51.522;9.910;2022-07-19T07:34:31;100314.94;;;26.50;46.95
8949;BME280;4509;51.522;9.910;2022-07-19T07:36:57;100311.28;;;26.71;43.66
8949;BME280;4509;51.522;9.910;2022-07-19T07:39:25;100315.91;;;26.97;42.49
8949;BME280;4509;51.522;9.910;2022-07-19T07:41:52;100312.44;;;27.23;44.06
8949;BME280;4509;51.522;9.910;2022-07-19T07:44:19;100309.53;;;27.38;46.02
8949;BME280;4509;51.522;9.910;2022-07-19T07:46:45;100312.84;;;27.53;45.10
8949;BME280;4509;51.522;9.910;2022-07-19T07:49:12;100303.34;;;27.70;44.26
8949;BME280;4509;51.522;9.910;2022-07-19T07:51:39;100309.53;;;27.77;41.15
8949;BME280;4509;51.522;9.910;2022-07-19T07:54:05;100310.50;;;28.03;40.59
8949;BME280;4509;51.522;9.910;2022-07-19T07:56:33;100302.59;;;28.27;42.59
8949;BME280;4509;51.522;9.910;2022-07-19T07:59:00;100302.88;;;28.57;40.32
8949;BME280;4509;51.522;9.910;2022-07-19T08:01:27;100299.66;;;28.80;39.20
8949;BME280;4509;51.522;9.910;2022-07-19T08:03:55;100302.44;;;28.99;40.32
8949;BME280;4509;51.522;9.910;2022-07-19T08:06:21;100295.53;;;29.09;39.65
8949;BME280;4509;51.522;9.910;2022-07-19T08:08:48;100297.06;;;29.23;39.25
8949;BME280;4509;51.522;9.910;2022-07-19T08:11:15;100291.75;;;29.42;39.29
8949;BME280;4509;51.522;9.910;2022-07-19T08:13:43;100294.78;;;29.52;37.31
8949;BME280;4509;51.522;9.910;2022-07-19T08:16:09;100296.31;;;29.66;38.57
8949;BME280;4509;51.522;9.910;2022-07-19T08:18:36;100288.69;;;29.81;36.97
8949;BME280;4509;51.522;9.910;2022-07-19T08:21:03;100287.13;;;30.10;38.16
8949;BME280;4509;51.522;9.910;2022-07-19T08:23:30;100280.44;;;30.31;37.02
8949;BME280;4509;51.522;9.910;2022-07-19T08:25:56;100280.13;;;30.39;37.46
8949;BME280;4509;51.522;9.910;2022-07-19T08:28:23;100279.19;;;30.63;35.79
8949;BME280;4509;51.522;9.910;2022-07-19T08:30:51;100279.34;;;30.80;37.07
8949;BME280;4509;51.522;9.910;2022-07-19T08:33:18;100278.72;;;31.08;35.92
8949;BME280;4509;51.522;9.910;2022-07-19T08:35:44;100272.56;;;31.01;35.42
8949;BME280;4509;51.522;9.910;2022-07-19T08:38:11;100274.91;;;31.16;35.06
8949;BME280;4509;51.522;9.910;2022-07-19T08:40:41;100273.56;;;31.18;34.92
8949;BME280;4509;51.522;9.910;2022-07-19T08:43:09;100277.47;;;31.22;35.87
8949;BME280;4509;51.522;9.910;2022-07-19T08:45:37;100274.91;;;31.51;35.06
8949;BME280;4509;51.522;9.910;2022-07-19T08:48:07;100274.56;;;31.82;34.58
8949;BME280;4509;51.522;9.910;2022-07-19T08:50:35;100272.66;;;31.94;34.22
8949;BME280;4509;51.522;9.910;2022-07-19T08:53:01;100273.53;;;32.12;34.20
8949;BME280;4509;51.522;9.910;2022-07-19T08:55:28;100277.81;;;32.08;33.65
8949;BME280;4509;51.522;9.910;2022-07-19T08:57:55;100270.19;;;32.45;34.15
8949;BME280;4509;51.522;9.910;2022-07-19T09:00:24;100273.44;;;32.58;32.56
8949;BME280;4509;51.522;9.910;2022-07-19T09:02:52;100268.75;;;32.82;32.41
8949;BME280;4509;51.522;9.910;2022-07-19T09:05:21;100276.06;;;32.98;30.79
8949;BME280;4509;51.522;9.910;2022-07-19T09:08:09;100276.47;;;33.07;31.31
8949;BME280;4509;51.522;9.910;2022-07-19T09:10:37;100275.88;;;33.33;31.78
8949;BME280;4509;51.522;9.910;2022-07-19T09:13:07;100270.78;;;33.59;30.25
8949;BME280;4509;51.522;9.910;2022-07-19T09:15:38;100267.00;;;33.77;31.51
8949;BME280;4509;51.522;9.910;2022-07-19T09:18:06;100269.97;;;33.97;30.18
8949;BME280;4509;51.522;9.910;2022-07-19T09:20:34;100264.19;;;34.10;31.29
8949;BME280;4509;51.522;9.910;2022-07-19T09:23:01;100264.03;;;34.22;30.91
8949;BME280;4509;51.522;9.910;2022-07-19T09:25:33;100266.34;;;34.30;29.61
8949;BME280;4509;51.522;9.910;2022-07-19T09:28:00;100260.06;;;34.51;30.11
8949;BME280;4509;51.522;9.910;2022-07-19T09:30:35;100254.72;;;34.88;29.58
8949;BME280;4509;51.522;9.910;2022-07-19T09:33:08;100250.28;;;35.14;29.58
8949;BME280;4509;51.522;9.910;2022-07-19T09:35:39;100245.53;;;34.99;28.23
8949;BME280;4509;51.522;9.910;2022-07-19T09:38:20;100244.34;;;34.90;29.71
8949;BME280;4509;51.522;9.910;2022-07-19T09:40:48;100250.63;;;34.91;29.36
8949;BME280;4509;51.522;9.910;2022-07-19T09:43:16;100237.72;;;35.13;30.12
8949;BME280;4509;51.522;9.910;2022-07-19T09:45:44;100242.34;;;35.45;28.57
8949;BME280;4509;51.522;9.910;2022-07-19T09:48:11;100239.34;;;35.46;29.22
8949;BME280;4509;51.522;9.910;2022-07-19T09:50:45;100244.22;;;35.81;29.79
8949;BME280;4509;51.522;9.910;2022-07-19T09:53:13;100242.41;;;36.07;29.36
8949;BME280;4509;51.522;9.910;2022-07-19T09:55:40;100243.53;;;36.11;28.42
8949;BME280;4509;51.522;9.910;2022-07-19T09:58:07;100246.25;;;36.21;29.13
8949;BME280;4509;51.522;9.910;2022-07-19T10:00:36;100243.88;;;36.30;26.36
8949;BME280;4509;51.522;9.910;2022-07-19T10:03:04;100240.91;;;36.57;28.94
8949;BME280;4509;51.522;9.910;2022-07-19T10:05:32;100233.56;;;36.67;26.57
8949;BME280;4509;51.522;9.910;2022-07-19T10:08:01;100236.88;;;36.74;27.38
8949;BME280;4509;51.522;9.910;2022-07-19T10:10:28;100227.84;;;36.94;27.48
8949;BME280;4509;51.522;9.910;2022-07-19T10:12:57;100227.31;;;37.23;27.40
8949;BME280;4509;51.522;9.910;2022-07-19T10:15:24;100232.16;;;37.51;26.37
8949;BME280;4509;51.522;9.910;2022-07-19T10:18:03;100228.88;;;37.49;25.89
8949;BME280;4509;51.522;9.910;2022-07-19T10:20:31;100233.31;;;37.30;26.37
8949;BME280;4509;51.522;9.910;2022-07-19T10:23:01;100225.06;;;37.55;27.18
8949;BME280;4509;51.522;9.910;2022-07-19T10:25:39;100230.03;;;37.48;24.63
8949;BME280;4509;51.522;9.910;2022-07-19T10:28:26;100231.94;;;37.37;28.70
8949;BME280;4509;51.522;9.910;2022-07-19T10:30:54;100226.41;;;37.58;27.25
8949;BME280;4509;51.522;9.910;2022-07-19T10:33:30;100222.06;;;37.67;26.48
8949;BME280;4509;51.522;9.910;2022-07-19T10:35:57;100214.38;;;37.69;29.43
8949;BME280;4509;51.522;9.910;2022-07-19T10:38:25;100216.88;;;37.65;26.22
8949;BME280;4509;51.522;9.910;2022-07-19T10:40:52;100211.03;;;37.82;26.61
8949;BME280;4509;51.522;9.910;2022-07-19T10:43:22;100209.63;;;37.90;25.45
8949;BME280;4509;51.522;9.910;2022-07-19T10:46:07;100200.94;;;37.77;25.33
8949;BME280;4509;51.522;9.910;2022-07-19T10:48:36;100204.34;;;38.14;26.45
8949;BME280;4509;51.522;9.910;2022-07-19T10:51:03;100200.81;;;38.57;27.58
8949;BME280;4509;51.522;9.910;2022-07-19T10:53:59;100194.94;;;38.69;28.73
8949;BME280;4509;51.522;9.910;2022-07-19T10:56:36;100180.84;;;38.80;25.04
8949;BME280;4509;51.522;9.910;2022-07-19T10:59:05;100186.06;;;38.82;25.87
8949;BME280;4509;51.522;9.910;2022-07-19T11:01:34;100188.47;;;38.89;25.75
8949;BME280;4509;51.522;9.910;2022-07-19T11:04:21;100183.41;;;39.06;28.62
8949;BME280;4509;51.522;9.910;2022-07-19T11:06:48;100185.56;;;39.09;26.53
8949;BME280;4509;51.522;9.910;2022-07-19T11:09:16;100174.59;;;39.09;26.18
8949;BME280;4509;51.522;9.910;2022-07-19T11:11:43;100172.38;;;39.11;25.29
8949;BME280;4509;51.522;9.910;2022-07-19T11:14:10;100160.00;;;39.37;27.03
8949;BME280;4509;51.522;9.910;2022-07-19T11:16:37;100158.84;;;39.20;30.51
8949;BME280;4509;51.522;9.910;2022-07-19T11:19:06;100161.75;;;39.04;25.34
8949;BME280;4509;51.522;9.910;2022-07-19T11:21:34;100161.34;;;38.58;25.95
8949;BME280;4509;51.522;9.910;2022-07-19T11:24:02;100159.06;;;38.65;25.43
8949;BME280;4509;51.522;9.910;2022-07-19T11:26:36;100153.81;;;38.98;25.04
8949;BME280;4509;51.522;9.910;2022-07-19T11:29:04;100154.28;;;39.10;24.75
8949;BME280;4509;51.522;9.910;2022-07-19T11:31:30;100150.44;;;39.59;29.74
8949;BME280;4509;51.522;9.910;2022-07-19T11:33:58;100148.72;;;39.87;25.05
8949;BME280;4509;51.522;9.910;2022-07-19T11:36:26;100144.47;;;39.75;23.73
8949;BME280;4509;51.522;9.910;2022-07-19T11:38:55;100142.72;;;39.85;26.05
8949;BME280;4509;51.522;9.910;2022-07-19T11:41:24;100137.59;;;40.15;24.98
8949;BME280;4509;51.522;9.910;2022-07-19T11:43:58;100139.41;;;40.44;28.97
8949;BME280;4509;51.522;9.910;2022-07-19T11:46:27;100135.03;;;40.75;31.04
8949;BME280;4509;51.522;9.910;2022-07-19T11:48:56;100137.88;;;40.52;22.67
8949;BME280;4509;51.522;9.910;2022-07-19T11:51:22;100136.34;;;40.27;21.41
8949;BME280;4509;51.522;9.910;2022-07-19T11:53:51;100132.41;;;40.33;21.76
8949;BME280;4509;51.522;9.910;2022-07-19T11:56:20;100129.81;;;40.74;26.00
8949;BME280;4509;51.522;9.910;2022-07-19T11:58:47;100132.69;;;40.50;20.96
8949;BME280;4509;51.522;9.910;2022-07-19T12:01:22;100126.81;;;40.70;21.71
8949;BME280;4509;51.522;9.910;2022-07-19T12:03:54;100129.91;;;40.82;23.53
8949;BME280;4509;51.522;9.910;2022-07-19T12:06:34;100121.19;;;41.08;25.68
8949;BME280;4509;51.522;9.910;2022-07-19T12:09:04;100123.59;;;41.28;23.10
8949;BME280;4509;51.522;9.910;2022-07-19T12:11:38;100116.13;;;41.56;25.21
8949;BME280;4509;51.522;9.910;2022-07-19T12:14:16;100104.72;;;41.22;21.89
8949;BME280;4509;51.522;9.910;2022-07-19T12:16:44;100115.41;;;40.82;21.89
8949;BME280;4509;51.522;9.910;2022-07-19T12:19:11;100107.75;;;41.06;21.58
8949;BME280;4509;51.522;9.910;2022-07-19T12:21:40;100111.94;;;41.04;20.75
8949;BME280;4509;51.522;9.910;2022-07-19T12:24:12;100107.66;;;41.11;20.93
8949;BME280;4509;51.522;9.910;2022-07-19T12:26:40;100096.78;;;40.60;21.54
8949;BME280;4509;51.522;9.910;2022-07-19T12:29:18;100103.69;;;40.90;20.70
8949;BME280;4509;51.522;9.910;2022-07-19T12:31:47;100103.50;;;41.14;22.32
8949;BME280;4509;51.522;9.910;2022-07-19T12:34:15;100103.31;;;41.24;21.32
8949;BME280;4509;51.522;9.910;2022-07-19T12:36:42;100097.59;;;41.34;21.20
8949;BME280;4509;51.522;9.910;2022-07-19T12:39:17;100087.47;;;41.57;21.97
8949;BME280;4509;51.522;9.910;2022-07-19T12:41:57;100084.50;;;41.67;25.17
8949;BME280;4509;51.522;9.910;2022-07-19T12:44:24;100081.34;;;41.96;21.97
8949;BME280;4509;51.522;9.910;2022-07-19T12:46:52;100076.50;;;41.93;23.82
8949;BME280;4509;51.522;9.910;2022-07-19T12:49:19;100069.06;;;41.80;21.22
8949;BME280;4509;51.522;9.910;2022-07-19T12:51:46;100072.28;;;41.60;21.95
8949;BME280;4509;51.522;9.910;2022-07-19T12:54:13;100069.84;;;41.72;20.99
8949;BME280;4509;51.522;9.910;2022-07-19T12:56:39;100076.78;;;41.56;21.53
8949;BME280;4509;51.522;9.910;2022-07-19T12:59:06;100064.03;;;41.60;21.91
8949;BME280;4509;51.522;9.910;2022-07-19T13:01:52;100062.75;;;41.79;20.59
8949;BME280;4509;51.522;9.910;2022-07-19T13:04:18;100060.34;;;42.00;19.68
8949;BME280;4509;51.522;9.910;2022-07-19T13:06:46;100046.97;;;42.30;21.52
8949;BME280;4509;51.522;9.910;2022-07-19T13:09:13;100057.09;;;41.98;19.70
8949;BME280;4509;51.522;9.910;2022-07-19T13:11:40;100046.19;;;41.57;20.36
8949;BME280;4509;51.522;9.910;2022-07-19T13:14:06;100046.50;;;41.56;22.84